Time;durP1;ratioP1;P1;durP2;ratioP2;P2;SDS_P1;SDS_P2;PMS_P1;PMS_P2;Temp;Humidity;BMP_temperature;BMP_pressure;BME280_temperature;BME280_humidity;BME280_pressure;Samples;Min_cycle;Max_cycle;Signal;HPM_P1;HPM_P2
2023/01/26 00:01:23;;;;;;;58.00;33.27;;;0.60;99.90;;;;;;5089733;28;20882;-81
2023/01/26 00:03:54;;;;;;;60.65;35.20;;;0.70;99.90;;;;;;5084637;28;20381;-82
2023/01/26 00:06:34;;;;;;;60.13;34.88;;;0.60;99.90;;;;;;5092596;28;20373;-86
2023/01/26 00:09:00;;;;;;;59.67;33.97;;;0.70;99.90;;;;;;5091045;28;20396;-82
2023/01/26 00:11:30;;;;;;;65.03;36.60;;;0.60;99.90;;;;;;5091678;28;20782;-81
2023/01/26 00:13:58;;;;;;;62.72;34.58;;;0.50;99.90;;;;;;5094203;28;20380;-84
2023/01/26 00:16:25;;;;;;;64.17;36.23;;;1.10;99.90;;;;;;5093818;28;20388;-84
2023/01/26 00:18:52;;;;;;;66.00;35.55;;;0.60;99.90;;;;;;5095414;28;20365;-83
2023/01/26 00:21:20;;;;;;;57.63;34.65;;;0.70;99.90;;;;;;5096321;28;21206;-81
2023/01/26 00:23:49;;;;;;;59.65;32.92;;;0.70;99.90;;;;;;5094558;28;20379;-81
2023/01/26 00:26:17;;;;;;;59.70;34.33;;;1.10;99.90;;;;;;5094027;28;20376;-84
2023/01/26 00:28:43;;;;;;;68.45;37.60;;;1.30;99.90;;;;;;5094782;28;20373;-84
2023/01/26 00:31:17;;;;;;;70.10;36.13;;;0.60;99.90;;;;;;5094786;28;20380;-81
2023/01/26 00:33:43;;;;;;;60.05;35.40;;;0.30;99.90;;;;;;5095255;28;20465;-82
2023/01/26 00:36:10;;;;;;;60.78;34.88;;;0.70;99.90;;;;;;5098411;28;20380;-79
2023/01/26 00:38:36;;;;;;;64.93;36.33;;;0.90;99.90;;;;;;5102287;28;20391;-80
2023/01/26 00:41:02;;;;;;;58.92;35.35;;;1.20;99.90;;;;;;5102364;28;20443;-79
2023/01/26 00:43:28;;;;;;;65.00;36.73;;;1.40;99.90;;;;;;5110184;28;20379;-79
2023/01/26 00:45:53;;;;;;;55.22;33.28;;;1.20;99.90;;;;;;5119955;28;20694;-80
2023/01/26 00:48:19;;;;;;;59.43;33.90;;;1.40;99.90;;;;;;5120979;28;20426;-79
2023/01/26 00:50:45;;;;;;;56.53;31.90;;;0.90;99.90;;;;;;5119687;28;20942;-81
2023/01/26 00:53:10;;;;;;;62.53;33.43;;;0.80;99.90;;;;;;5120209;28;20848;-81
2023/01/26 00:55:36;;;;;;;58.38;33.95;;;0.80;99.90;;;;;;5112314;28;20396;-80
2023/01/26 00:58:04;;;;;;;51.55;29.42;;;1.00;99.90;;;;;;5098759;28;20851;-79
2023/01/26 01:00:31;;;;;;;53.92;29.95;;;1.10;99.90;;;;;;5098576;28;20438;-81
2023/01/26 01:02:57;;;;;;;51.20;29.20;;;0.70;99.90;;;;;;5097914;28;20376;-80
2023/01/26 01:05:25;;;;;;;50.72;29.30;;;0.90;99.90;;;;;;5099421;28;20381;-81
2023/01/26 01:07:50;;;;;;;51.05;29.10;;;1.00;99.90;;;;;;5099369;28;20859;-81
2023/01/26 01:10:16;;;;;;;53.75;31.83;;;0.70;99.90;;;;;;5097672;28;20401;-80
2023/01/26 01:12:42;;;;;;;51.67;30.50;;;0.50;99.90;;;;;;5100615;28;20434;-80
2023/01/26 01:15:08;;;;;;;47.57;29.57;;;0.70;99.90;;;;;;5098947;28;20392;-80
2023/01/26 01:17:37;;;;;;;43.17;27.38;;;0.50;99.90;;;;;;5100799;28;20455;-80
2023/01/26 01:20:04;;;;;;;44.65;27.38;;;1.00;99.90;;;;;;5101333;28;20389;-79
2023/01/26 01:22:31;;;;;;;44.58;26.48;;;0.60;99.90;;;;;;5099168;28;20387;-80
2023/01/26 01:24:56;;;;;;;43.70;26.00;;;0.90;99.90;;;;;;5100389;28;20455;-81
2023/01/26 01:27:22;;;;;;;42.10;25.75;;;0.50;99.90;;;;;;5102156;28;20369;-81
2023/01/26 01:29:49;;;;;;;36.77;24.00;;;0.70;99.90;;;;;;5102829;28;20400;-80
2023/01/26 01:32:15;;;;;;;38.42;24.17;;;0.80;99.90;;;;;;5103142;28;20698;-81
2023/01/26 01:34:41;;;;;;;41.92;26.42;;;0.90;99.90;;;;;;5101368;28;20392;-80
2023/01/26 01:39:42;;;;;;;50.65;30.08;;;0.50;99.90;;;;;;5033845;22;20654;-80
2023/01/26 01:42:11;;;;;;;42.50;27.67;;;1.10;99.90;;;;;;5040375;28;20431;-80
2023/01/26 01:44:37;;;;;;;43.38;27.08;;;0.60;99.90;;;;;;5029922;28;20371;-78
2023/01/26 01:47:12;;;;;;;44.38;27.90;;;0.90;99.90;;;;;;5020990;28;20387;-79
2023/01/26 01:49:43;;;;;;;48.45;29.45;;;1.00;99.90;;;;;;5022490;28;20435;-79
2023/01/26 01:52:12;;;;;;;48.50;29.42;;;1.00;99.90;;;;;;5021382;28;20746;-80
2023/01/26 01:54:49;;;;;;;45.05;28.50;;;0.30;99.90;;;;;;5017683;28;20425;-80
2023/01/26 01:57:26;;;;;;;44.83;28.55;;;0.60;99.90;;;;;;5007483;28;20379;-79
2023/01/26 02:00:14;;;;;;;44.88;26.83;;;1.00;99.90;;;;;;5002401;28;20397;-80
2023/01/26 02:02:42;;;;;;;43.38;27.38;;;0.50;99.90;;;;;;5001498;28;20393;-78
2023/01/26 02:05:25;;;;;;;42.38;26.75;;;0.50;99.90;;;;;;5018335;28;20401;-80
2023/01/26 02:07:53;;;;;;;43.75;26.30;;;0.50;99.90;;;;;;5016739;28;20399;-80
2023/01/26 02:10:19;;;;;;;43.47;25.77;;;0.40;99.90;;;;;;5018812;28;20485;-78
2023/01/26 02:12:49;;;;;;;43.00;26.08;;;0.50;99.90;;;;;;5017132;28;20395;-79
2023/01/26 02:15:15;;;;;;;37.85;23.80;;;0.40;99.90;;;;;;5017432;28;20411;-81
2023/01/26 02:17:40;;;;;;;39.55;24.10;;;0.50;99.90;;;;;;5017116;28;20426;-79
2023/01/26 02:20:35;;;;;;;35.90;24.25;;;0.90;99.90;;;;;;5015893;28;20399;-80
2023/01/26 02:23:16;;;;;;;36.78;24.38;;;0.80;99.90;;;;;;5018694;28;20414;-78
2023/01/26 02:25:56;;;;;;;37.00;23.83;;;1.00;99.90;;;;;;5016847;28;20451;-79
2023/01/26 02:28:25;;;;;;;36.80;22.90;;;0.40;99.90;;;;;;5016419;28;20418;-81
2023/01/26 02:30:52;;;;;;;39.53;23.33;;;0.40;99.90;;;;;;5007403;28;20419;-80
2023/01/26 02:33:19;;;;;;;35.83;22.07;;;1.10;99.90;;;;;;5014434;28;20476;-78
2023/01/26 02:35:44;;;;;;;37.77;23.67;;;0.50;99.90;;;;;;5015059;28;20905;-78
2023/01/26 02:38:10;;;;;;;37.93;23.80;;;0.40;99.90;;;;;;5014819;28;20417;-80
2023/01/26 02:40:36;;;;;;;35.87;22.50;;;0.60;99.90;;;;;;5016692;28;20766;-81
2023/01/26 02:43:02;;;;;;;33.13;22.17;;;0.60;99.90;;;;;;5016059;28;20414;-84
2023/01/26 02:45:30;;;;;;;36.30;22.75;;;0.80;99.90;;;;;;5013135;28;20421;-81
2023/01/26 02:47:56;;;;;;;37.53;22.70;;;0.50;99.90;;;;;;5008792;28;20409;-82
2023/01/26 02:50:22;;;;;;;37.55;22.40;;;0.90;99.90;;;;;;4988860;28;20773;-81
2023/01/26 02:52:51;;;;;;;34.27;21.57;;;1.20;99.90;;;;;;4992144;28;20623;-79
2023/01/26 02:55:27;;;;;;;38.70;23.40;;;1.00;99.90;;;;;;4994135;28;20411;-78
2023/01/26 02:57:55;;;;;;;47.70;27.50;;;0.80;99.90;;;;;;4998808;28;20414;-79
2023/01/26 03:00:27;;;;;;;57.95;31.20;;;0.90;99.90;;;;;;4993107;28;20411;-82
2023/01/26 03:02:56;;;;;;;51.13;29.50;;;0.40;99.90;;;;;;4991832;28;20958;-81
2023/01/26 03:05:22;;;;;;;60.72;31.00;;;0.40;99.90;;;;;;4991408;28;20494;-80
2023/01/26 03:07:48;;;;;;;54.27;29.90;;;0.40;99.90;;;;;;4991229;28;20502;-80
2023/01/26 03:10:17;;;;;;;55.40;30.20;;;0.40;99.90;;;;;;4993942;28;20422;-80
2023/01/26 03:12:43;;;;;;;48.65;27.73;;;0.40;99.90;;;;;;4992801;28;20415;-79
2023/01/26 03:29:19;;;;;;;48.05;26.17;;;0.20;99.90;;;;;;5018009;28;20430;-79
2023/01/26 03:31:45;;;;;;;47.55;27.15;;;0.50;99.90;;;;;;5016111;28;20407;-80
2023/01/26 03:34:11;;;;;;;59.63;29.95;;;1.00;99.90;;;;;;5017722;28;20413;-79
2023/01/26 03:36:37;;;;;;;52.03;28.75;;;0.80;99.90;;;;;;5015838;28;20404;-79
2023/01/26 03:39:04;;;;;;;50.42;27.67;;;0.70;99.90;;;;;;5017045;28;20418;-78
2023/01/26 03:57:55;;;;;;;43.70;26.02;;;0.60;99.90;;;;;;5002728;28;20418;-79
2023/01/26 04:00:21;;;;;;;45.93;26.53;;;0.60;99.90;;;;;;5016559;28;20376;-81
2023/01/26 04:08:29;;;;;;;42.70;24.60;;;0.50;99.90;;;;;;5019722;28;20492;-81
2023/01/26 04:10:57;;;;;;;43.20;25.85;;;0.60;99.90;;;;;;5025479;28;20405;-80
2023/01/26 04:21:38;;;;;;;43.28;25.67;;;0.60;99.90;;;;;;4997811;28;21023;-80
2023/01/26 04:24:08;;;;;;;43.77;25.40;;;0.70;99.90;;;;;;5011427;28;20405;-79
2023/01/26 04:26:35;;;;;;;38.75;24.83;;;0.70;99.90;;;;;;5012080;28;20389;-81
2023/01/26 04:29:06;;;;;;;44.42;24.92;;;1.40;99.90;;;;;;4997807;28;20413;-80
2023/01/26 04:31:32;;;;;;;42.08;24.95;;;0.60;99.90;;;;;;5019118;28;20380;-78
2023/01/26 04:34:03;;;;;;;40.60;24.83;;;0.60;99.90;;;;;;5005338;28;20393;-78
2023/01/26 04:36:29;;;;;;;39.08;23.85;;;0.70;99.90;;;;;;5019724;28;20472;-79
2023/01/26 04:38:55;;;;;;;49.92;26.45;;;0.70;99.90;;;;;;5017891;28;20518;-78
2023/01/26 04:41:22;;;;;;;50.67;27.47;;;0.10;99.90;;;;;;5019608;28;20375;-78
2023/01/26 04:43:49;;;;;;;50.42;28.27;;;0.40;99.90;;;;;;5017279;28;20387;-78
2023/01/26 04:46:15;;;;;;;44.45;27.00;;;0.50;99.90;;;;;;5028121;28;20472;-79
2023/01/26 04:48:41;;;;;;;54.93;28.73;;;0.50;99.90;;;;;;5036399;28;20435;-80
2023/01/26 04:51:14;;;;;;;46.50;25.60;;;0.20;99.90;;;;;;5036285;28;20377;-79
2023/01/26 04:53:40;;;;;;;51.80;27.87;;;0.30;99.90;;;;;;5026448;28;20380;-82
2023/01/26 04:56:12;;;;;;;49.88;27.58;;;0.30;99.90;;;;;;5013812;28;20901;-80
2023/01/26 04:58:39;;;;;;;50.47;28.10;;;0.20;99.90;;;;;;5020891;28;20371;-81
2023/01/26 05:01:04;;;;;;;56.65;29.40;;;0.20;99.90;;;;;;5018868;28;20390;-78
2023/01/26 05:03:31;;;;;;;50.85;27.38;;;0.00;99.90;;;;;;5017853;28;20482;-78
2023/01/26 05:05:57;;;;;;;48.20;26.60;;;0.00;99.90;;;;;;5018842;28;20407;-82
2023/01/26 05:08:22;;;;;;;51.50;27.30;;;0.60;99.90;;;;;;5019052;28;20395;-82
2023/01/26 05:10:51;;;;;;;46.97;26.87;;;-0.20;99.90;;;;;;5017459;28;20403;-80
2023/01/26 05:13:17;;;;;;;46.70;27.17;;;0.10;99.90;;;;;;5015508;28;20422;-82
2023/01/26 05:15:43;;;;;;;41.97;25.85;;;0.30;99.90;;;;;;5018413;28;20793;-78
2023/01/26 05:18:09;;;;;;;50.50;27.55;;;0.80;99.90;;;;;;5013934;28;20391;-80
2023/01/26 05:20:35;;;;;;;51.25;28.50;;;0.10;99.90;;;;;;5015385;28;20473;-80
2023/01/26 05:23:01;;;;;;;51.70;27.75;;;-0.10;99.90;;;;;;5015272;28;20403;-81
2023/01/26 05:25:27;;;;;;;47.17;26.80;;;0.10;99.90;;;;;;5016450;28;20375;-82
2023/01/26 05:27:53;;;;;;;48.03;26.70;;;0.10;99.90;;;;;;5015960;28;20427;-81
2023/01/26 05:30:19;;;;;;;45.90;26.07;;;0.00;99.90;;;;;;5015567;28;20406;-82
2023/01/26 05:32:44;;;;;;;39.67;24.23;;;0.10;99.90;;;;;;5015621;28;20379;-79
2023/01/26 05:35:10;;;;;;;44.73;25.83;;;0.40;99.90;;;;;;5014239;28;20379;-78
2023/01/26 05:37:36;;;;;;;46.37;26.47;;;0.10;99.90;;;;;;5014570;28;20387;-83
2023/01/26 05:40:03;;;;;;;45.03;25.98;;;0.30;99.90;;;;;;5015454;28;20387;-82
2023/01/26 05:42:28;;;;;;;37.85;23.83;;;0.00;99.90;;;;;;5014590;28;20371;-80
2023/01/26 05:44:54;;;;;;;38.45;23.92;;;0.10;99.90;;;;;;5014601;28;20386;-78
2023/01/26 05:47:19;;;;;;;41.65;25.00;;;0.20;99.90;;;;;;5020402;28;20379;-80
2023/01/26 05:49:45;;;;;;;43.38;26.98;;;0.10;99.90;;;;;;5020837;28;20942;-79
2023/01/26 05:52:14;;;;;;;44.85;25.25;;;-0.10;99.90;;;;;;5019620;28;20391;-82
2023/01/26 05:54:40;;;;;;;37.45;22.50;;;0.30;99.90;;;;;;5013400;28;20390;-83
2023/01/26 05:57:06;;;;;;;34.72;21.77;;;-0.40;99.90;;;;;;5014369;28;20375;-79
2023/01/26 05:59:32;;;;;;;32.63;21.40;;;-0.10;99.90;;;;;;5014666;28;20391;-79
2023/01/26 06:01:58;;;;;;;26.93;18.97;;;0.40;99.90;;;;;;5012820;28;20453;-81
2023/01/26 06:04:25;;;;;;;28.08;18.27;;;0.00;99.90;;;;;;5013402;28;20392;-81
2023/01/26 06:06:55;;;;;;;22.17;15.77;;;-0.10;99.90;;;;;;5013056;28;20410;-81
2023/01/26 06:09:21;;;;;;;21.17;15.18;;;-0.10;99.90;;;;;;5008673;28;20412;-80
2023/01/26 06:11:46;;;;;;;21.52;15.77;;;-0.40;99.90;;;;;;5008450;28;20396;-81
2023/01/26 06:14:12;;;;;;;21.02;15.48;;;-0.30;99.90;;;;;;5021914;28;20468;-78
2023/01/26 06:16:38;;;;;;;21.58;15.55;;;-0.10;99.90;;;;;;5023303;28;20406;-82
2023/01/26 06:19:04;;;;;;;21.97;16.00;;;-0.40;99.90;;;;;;5017611;28;20403;-85
2023/01/26 06:21:31;;;;;;;22.98;16.23;;;-0.30;99.90;;;;;;5013284;28;21553;-79
2023/01/26 06:23:57;;;;;;;24.08;17.25;;;-0.30;99.90;;;;;;5004593;28;20729;-83
2023/01/26 06:26:23;;;;;;;23.98;17.20;;;-0.30;99.90;;;;;;5008523;28;20526;-80
2023/01/26 06:28:49;;;;;;;19.45;15.63;;;-0.30;99.90;;;;;;5002983;28;21233;-80
2023/01/26 06:31:15;;;;;;;21.05;15.65;;;-0.50;99.90;;;;;;5006685;28;20467;-82
2023/01/26 06:33:41;;;;;;;19.03;14.47;;;-0.40;99.90;;;;;;4999171;28;20407;-81
2023/01/26 06:36:11;;;;;;;17.43;14.23;;;0.00;99.90;;;;;;5014832;28;20567;-82
2023/01/26 06:38:38;;;;;;;49.10;41.13;;;0.20;99.90;;;;;;5034692;28;20405;-79
2023/01/26 06:41:06;;;;;;;22.45;17.05;;;0.00;99.90;;;;;;5040253;28;20380;-78
2023/01/26 06:43:33;;;;;;;20.77;16.60;;;-0.10;99.90;;;;;;5039375;28;20489;-80
2023/01/26 06:46:00;;;;;;;22.60;17.27;;;-0.20;99.90;;;;;;5037784;28;20385;-79
2023/01/26 06:48:27;;;;;;;21.63;16.67;;;-0.20;99.90;;;;;;5039799;28;20466;-80
2023/01/26 06:51:02;;;;;;;22.83;17.55;;;0.00;99.90;;;;;;5039610;28;20423;-81
2023/01/26 06:53:41;;;;;;;24.90;17.57;;;-0.40;99.90;;;;;;5038893;28;20919;-82
2023/01/26 06:56:07;;;;;;;24.70;18.00;;;-0.20;99.90;;;;;;5041456;28;20370;-80
2023/01/26 06:58:32;;;;;;;24.37;18.23;;;-0.30;99.90;;;;;;5041795;28;20372;-79
2023/01/26 07:00:59;;;;;;;25.67;19.20;;;0.20;99.90;;;;;;5041414;28;20388;-79
2023/01/26 07:03:25;;;;;;;27.27;19.52;;;-0.20;99.90;;;;;;5039982;28;20377;-80
2023/01/26 07:05:51;;;;;;;26.48;18.98;;;0.40;99.90;;;;;;5038462;28;20439;-80
2023/01/26 07:08:16;;;;;;;27.03;20.97;;;-0.30;99.90;;;;;;5037179;28;20473;-80
2023/01/26 07:10:42;;;;;;;27.40;19.23;;;0.20;99.90;;;;;;5045397;28;20413;-82
2023/01/26 07:13:09;;;;;;;28.75;20.77;;;0.00;99.90;;;;;;5053223;28;20397;-82
2023/01/26 07:15:35;;;;;;;25.50;19.60;;;-0.50;99.90;;;;;;5048699;28;20801;-79
2023/01/26 07:18:01;;;;;;;27.33;19.70;;;-0.20;99.90;;;;;;5042846;28;20503;-78
2023/01/26 07:20:27;;;;;;;25.67;20.15;;;-0.20;99.90;;;;;;5036963;28;20941;-79
2023/01/26 07:22:53;;;;;;;27.10;20.85;;;0.10;99.90;;;;;;5040735;28;20389;-80
2023/01/26 07:25:19;;;;;;;30.40;21.00;;;-0.10;99.90;;;;;;5039670;28;20378;-79
2023/01/26 07:27:44;;;;;;;29.17;20.77;;;-0.20;99.90;;;;;;5038594;28;20503;-79
2023/01/26 07:30:14;;;;;;;30.35;21.52;;;-0.20;99.90;;;;;;5040531;28;20496;-82
2023/01/26 07:32:40;;;;;;;25.17;18.85;;;-0.20;99.90;;;;;;5032373;28;20373;-79
2023/01/26 07:35:07;;;;;;;24.93;18.13;;;-0.20;99.90;;;;;;5030574;28;20410;-80
2023/01/26 07:37:32;;;;;;;24.55;18.20;;;0.10;99.90;;;;;;5031405;28;20785;-82
2023/01/26 07:39:58;;;;;;;23.63;18.33;;;0.10;99.90;;;;;;5027802;28;20417;-79
2023/01/26 07:42:24;;;;;;;22.83;16.83;;;0.10;99.90;;;;;;5029979;28;20712;-78
2023/01/26 07:44:49;;;;;;;18.27;13.65;;;0.20;99.90;;;;;;5029900;28;20393;-78
2023/01/26 07:47:15;;;;;;;17.40;13.33;;;0.20;99.90;;;;;;5029781;28;20389;-79
2023/01/26 07:49:41;;;;;;;17.13;12.87;;;0.20;99.90;;;;;;5029327;28;20412;-79
2023/01/26 07:52:08;;;;;;;19.60;14.87;;;0.60;99.90;;;;;;5029054;28;20392;-79
2023/01/26 07:54:34;;;;;;;19.83;16.23;;;0.00;99.90;;;;;;5027237;28;20542;-80
2023/01/26 07:56:59;;;;;;;18.33;14.45;;;0.10;99.90;;;;;;5029139;28;20393;-81
2023/01/26 07:59:25;;;;;;;15.18;11.65;;;-0.10;99.90;;;;;;5029553;28;20393;-81
2023/01/26 08:01:53;;;;;;;15.48;12.65;;;-0.30;99.90;;;;;;5029290;28;20377;-80
2023/01/26 08:04:19;;;;;;;16.38;12.25;;;0.00;99.90;;;;;;5029489;28;20393;-82
2023/01/26 08:06:45;;;;;;;14.80;11.93;;;-0.20;99.90;;;;;;5030319;28;20388;-81
2023/01/26 08:09:10;;;;;;;16.23;11.93;;;-0.10;99.90;;;;;;5026172;28;20418;-77
2023/01/26 08:11:36;;;;;;;17.48;14.13;;;-0.10;99.90;;;;;;5011936;28;20380;-80
2023/01/26 08:14:02;;;;;;;16.42;13.60;;;0.20;99.90;;;;;;5020050;28;20421;-80
2023/01/26 08:16:28;;;;;;;18.00;13.70;;;-0.30;99.90;;;;;;5028156;28;20377;-80
2023/01/26 08:18:54;;;;;;;17.85;13.65;;;0.30;99.90;;;;;;5028370;28;20417;-79
2023/01/26 08:21:20;;;;;;;19.40;15.05;;;0.70;99.90;;;;;;5026928;28;20388;-81
2023/01/26 08:23:50;;;;;;;18.45;14.57;;;-0.10;99.90;;;;;;5005030;28;20421;-82
2023/01/26 08:26:17;;;;;;;15.47;13.17;;;0.10;99.90;;;;;;5011275;28;20424;-79
2023/01/26 08:28:43;;;;;;;14.73;11.90;;;0.40;99.90;;;;;;5008129;28;20402;-79
2023/01/26 08:31:19;;;;;;;14.60;11.63;;;0.20;99.90;;;;;;5008983;28;20959;-79
2023/01/26 08:33:49;;;;;;;15.38;12.35;;;0.40;99.90;;;;;;5011361;28;20387;-79
2023/01/26 08:36:15;;;;;;;15.20;12.77;;;0.50;99.90;;;;;;5007363;28;20746;-80
2023/01/26 08:38:41;;;;;;;13.98;11.13;;;0.70;99.90;;;;;;5012618;28;20387;-80
2023/01/26 08:41:08;;;;;;;13.32;11.32;;;0.50;99.90;;;;;;5012325;28;20885;-79
2023/01/26 08:43:34;;;;;;;15.80;12.52;;;0.90;99.90;;;;;;5013424;28;20457;-80
2023/01/26 08:45:59;;;;;;;16.17;13.55;;;1.00;99.90;;;;;;5012644;28;20480;-79
2023/01/26 08:48:25;;;;;;;18.80;14.32;;;0.40;99.90;;;;;;5013090;28;20360;-80
2023/01/26 08:50:55;;;;;;;44.42;33.53;;;0.20;99.90;;;;;;5012432;28;20402;-80
2023/01/26 08:53:21;;;;;;;21.00;17.02;;;0.70;99.90;;;;;;5013123;28;20391;-81
2023/01/26 08:55:47;;;;;;;19.65;15.27;;;0.50;99.90;;;;;;5012079;28;20400;-79
2023/01/26 08:58:13;;;;;;;15.73;13.27;;;0.50;99.90;;;;;;5012613;28;20417;-79
2023/01/26 09:00:39;;;;;;;20.15;15.35;;;0.60;99.90;;;;;;5012697;28;20970;-79
2023/01/26 09:03:05;;;;;;;20.15;16.15;;;0.50;99.90;;;;;;5012842;28;20375;-81
2023/01/26 09:05:33;;;;;;;18.00;14.60;;;0.70;99.90;;;;;;5012658;28;20418;-81
2023/01/26 09:07:59;;;;;;;25.42;22.00;;;0.90;99.90;;;;;;5010816;28;20379;-80
2023/01/26 09:10:25;;;;;;;25.25;20.60;;;0.60;99.90;;;;;;5012204;28;20503;-79
2023/01/26 09:12:51;;;;;;;20.52;17.50;;;0.80;99.90;;;;;;5012626;28;20379;-80
2023/01/26 09:15:17;;;;;;;21.67;17.03;;;0.50;99.90;;;;;;5012945;28;20478;-80
2023/01/26 09:17:42;;;;;;;21.60;16.67;;;0.50;99.90;;;;;;5017647;28;20972;-79
2023/01/26 09:20:11;;;;;;;21.30;16.70;;;0.80;99.90;;;;;;5029968;28;20385;-79
2023/01/26 09:22:37;;;;;;;20.33;17.10;;;0.60;99.90;;;;;;5030970;28;21041;-80
2023/01/26 09:25:05;;;;;;;17.70;15.80;;;0.60;99.90;;;;;;5029294;28;20564;-80
2023/01/26 09:27:31;;;;;;;15.02;12.20;;;0.50;99.90;;;;;;5011158;28;20746;-80
2023/01/26 09:29:56;;;;;;;18.80;16.43;;;0.40;99.90;;;;;;5011174;28;20425;-79
2023/01/26 09:32:22;;;;;;;17.27;13.97;;;0.80;99.90;;;;;;5011472;28;20566;-80
2023/01/26 09:34:48;;;;;;;12.33;10.03;;;0.80;99.90;;;;;;5012098;28;20437;-80
2023/01/26 09:37:14;;;;;;;12.32;11.02;;;0.50;99.90;;;;;;5011058;28;20479;-80
2023/01/26 09:39:40;;;;;;;12.82;11.45;;;0.50;99.90;;;;;;5008468;28;21084;-80
2023/01/26 09:42:56;;;;;;;11.73;10.50;;;0.30;99.90;;;;;;5009750;28;20408;-79
2023/01/26 09:45:42;;;;;;;11.50;9.85;;;0.60;99.90;;;;;;4981753;28;20445;-80
2023/01/26 09:48:16;;;;;;;11.00;9.48;;;0.70;99.90;;;;;;5015366;28;20465;-79
2023/01/26 09:50:55;;;;;;;10.83;9.30;;;0.60;99.90;;;;;;5010081;28;20446;-80
2023/01/26 09:53:27;;;;;;;11.45;9.07;;;0.80;99.90;;;;;;5010667;28;20383;-80
2023/01/26 09:55:54;;;;;;;10.48;9.38;;;0.80;99.90;;;;;;5007119;28;20406;-79
2023/01/26 09:58:36;;;;;;;11.27;10.07;;;1.20;99.90;;;;;;5011288;28;20383;-80
2023/01/26 10:01:03;;;;;;;10.27;9.18;;;0.90;99.90;;;;;;5011357;28;20419;-79
2023/01/26 10:03:40;;;;;;;10.63;9.52;;;1.00;99.90;;;;;;5009693;28;20407;-79
2023/01/26 10:06:27;;;;;;;14.97;12.30;;;0.90;99.90;;;;;;5008342;28;20431;-80
2023/01/26 10:08:55;;;;;;;12.70;10.82;;;0.90;99.90;;;;;;5009075;28;20399;-80
2023/01/26 10:11:51;;;;;;;11.90;10.57;;;0.70;99.90;;;;;;5010618;28;20390;-80
2023/01/26 10:14:39;;;;;;;13.57;11.38;;;0.60;99.90;;;;;;4991901;28;20897;-81
2023/01/26 10:17:24;;;;;;;13.40;11.30;;;0.70;99.90;;;;;;5009245;28;20379;-81
2023/01/26 10:20:08;;;;;;;13.52;11.15;;;1.00;99.90;;;;;;5009569;28;20383;-80
2023/01/26 10:22:51;;;;;;;12.50;11.18;;;1.10;99.90;;;;;;5010519;28;20406;-81
2023/01/26 10:25:18;;;;;;;12.02;10.73;;;0.90;99.90;;;;;;5010280;28;20422;-81
2023/01/26 10:27:45;;;;;;;13.13;11.70;;;0.90;99.90;;;;;;5009882;28;20699;-80
2023/01/26 10:30:16;;;;;;;13.30;11.88;;;0.90;99.90;;;;;;5010452;28;20969;-80
2023/01/26 10:32:44;;;;;;;12.45;11.10;;;0.90;99.90;;;;;;5005853;28;20494;-80
2023/01/26 10:35:21;;;;;;;13.57;11.23;;;0.90;99.90;;;;;;5005848;28;20402;-79
2023/01/26 10:37:47;;;;;;;12.52;10.65;;;1.00;99.90;;;;;;5008418;28;20414;-80
2023/01/26 10:40:13;;;;;;;12.55;10.77;;;1.20;99.90;;;;;;5009410;28;20387;-81
2023/01/26 10:42:40;;;;;;;13.18;11.05;;;1.00;99.90;;;;;;5007553;28;20418;-80
2023/01/26 10:45:28;;;;;;;11.57;10.33;;;1.10;99.90;;;;;;5009682;28;20418;-79
2023/01/26 10:48:17;;;;;;;13.65;10.90;;;0.60;99.90;;;;;;5008388;28;20484;-80
2023/01/26 10:50:44;;;;;;;13.02;11.20;;;0.70;99.90;;;;;;5009250;28;20489;-79
2023/01/26 10:53:21;;;;;;;12.15;10.25;;;0.70;99.90;;;;;;5007931;28;20487;-81
2023/01/26 10:56:01;;;;;;;12.90;11.00;;;1.30;99.90;;;;;;5008071;28;20391;-80
2023/01/26 10:59:07;;;;;;;14.17;11.30;;;1.00;99.90;;;;;;5003956;28;20399;-80
2023/01/26 11:01:51;;;;;;;13.23;11.82;;;0.90;99.90;;;;;;4966442;28;20421;-80
2023/01/26 11:04:18;;;;;;;15.10;13.07;;;1.30;99.90;;;;;;4999369;28;20916;-81
2023/01/26 11:06:43;;;;;;;15.05;12.50;;;1.00;99.90;;;;;;5009380;28;20842;-81
2023/01/26 11:09:20;;;;;;;14.97;12.80;;;1.30;99.90;;;;;;5007018;28;20381;-80
2023/01/26 11:12:00;;;;;;;16.40;13.30;;;1.30;99.90;;;;;;5007694;28;20773;-80
2023/01/26 11:14:28;;;;;;;17.52;14.13;;;1.10;99.90;;;;;;5007153;28;20392;-80
2023/01/26 11:17:08;;;;;;;18.98;13.88;;;0.80;99.90;;;;;;5009362;28;20382;-80
2023/01/26 11:19:43;;;;;;;25.13;22.63;;;1.00;99.90;;;;;;5006895;28;20891;-80
2023/01/26 11:22:17;;;;;;;21.77;18.10;;;1.00;99.90;;;;;;5006176;28;20442;-81
2023/01/26 11:24:55;;;;;;;24.98;22.55;;;1.20;99.90;;;;;;4993485;28;20401;-80
2023/01/26 11:27:38;;;;;;;18.00;15.45;;;1.40;99.90;;;;;;5000190;28;20385;-81
2023/01/26 11:30:29;;;;;;;19.13;17.17;;;1.10;99.90;;;;;;5001906;28;20419;-80
2023/01/26 11:33:13;;;;;;;20.27;18.17;;;1.00;99.90;;;;;;5007458;28;20387;-81
2023/01/26 11:35:52;;;;;;;21.30;18.83;;;1.00;99.90;;;;;;5008811;28;20425;-80
2023/01/26 11:38:43;;;;;;;19.27;16.45;;;0.90;99.90;;;;;;5006171;28;20453;-80
2023/01/26 11:41:20;;;;;;;29.60;26.23;;;0.90;99.90;;;;;;4992064;28;20412;-80
2023/01/26 11:44:02;;;;;;;26.98;24.08;;;1.10;99.90;;;;;;5008301;28;20395;-80
2023/01/26 11:46:59;;;;;;;19.75;16.45;;;1.10;99.90;;;;;;5007659;28;20391;-81
2023/01/26 11:49:32;;;;;;;23.27;18.93;;;0.80;99.90;;;;;;5009020;28;20410;-80
2023/01/26 11:52:09;;;;;;;24.73;20.77;;;0.70;99.90;;;;;;5008516;28;20451;-80
2023/01/26 11:54:50;;;;;;;29.73;26.08;;;0.90;99.90;;;;;;5009402;28;20484;-80
2023/01/26 11:57:47;;;;;;;27.27;22.63;;;1.00;99.90;;;;;;5007812;28;20380;-80
2023/01/26 12:00:18;;;;;;;33.05;27.20;;;0.80;99.90;;;;;;5008191;28;20387;-80
2023/01/26 12:02:58;;;;;;;31.67;27.20;;;0.80;99.90;;;;;;5008348;28;20383;-80
2023/01/26 12:05:34;;;;;;;34.47;30.73;;;0.90;99.90;;;;;;5008924;28;20877;-81
2023/01/26 12:08:20;;;;;;;39.90;35.65;;;0.80;99.90;;;;;;5012188;28;20394;-80
2023/01/26 12:11:21;;;;;;;46.97;40.53;;;0.60;99.90;;;;;;5011831;28;20501;-80
2023/01/26 12:14:20;;;;;;;28.65;21.83;;;0.70;99.90;;;;;;5010214;28;20395;-81
2023/01/26 12:17:03;;;;;;;32.78;26.05;;;0.40;99.90;;;;;;5010637;28;20394;-82
2023/01/26 12:19:44;;;;;;;48.50;43.45;;;0.60;99.90;;;;;;5013091;28;20477;-81
2023/01/26 12:22:37;;;;;;;37.05;32.88;;;0.50;99.90;;;;;;5029303;28;20393;-81
2023/01/26 12:28:15;;;;;;;31.25;23.70;;;0.40;99.90;;;;;;5032034;28;20740;-82
2023/01/26 12:31:03;;;;;;;30.60;23.83;;;0.40;99.90;;;;;;5012817;28;20535;-82
2023/01/26 12:33:31;;;;;;;31.73;24.47;;;0.40;99.90;;;;;;5009252;28;20727;-80
2023/01/26 12:36:19;;;;;;;24.80;20.05;;;0.30;99.90;;;;;;5016345;28;20468;-79
2023/01/26 12:39:15;;;;;;;27.63;23.95;;;0.60;99.90;;;;;;5019152;28;20449;-79
2023/01/26 12:41:55;;;;;;;26.30;21.97;;;0.60;99.90;;;;;;5023488;28;20390;-80
2023/01/26 12:44:40;;;;;;;35.38;31.33;;;0.90;99.90;;;;;;5016703;28;20395;-80
2023/01/26 12:47:41;;;;;;;34.33;28.15;;;0.40;99.90;;;;;;4995762;28;20927;-79
2023/01/26 12:50:19;;;;;;;31.85;26.85;;;0.30;99.90;;;;;;4993460;28;20559;-81
2023/01/26 12:53:00;;;;;;;33.20;25.17;;;0.20;99.90;;;;;;4995884;28;20384;-80
2023/01/26 12:55:55;;;;;;;32.47;23.95;;;0.20;99.90;;;;;;5012400;28;20538;-81
2023/01/26 12:58:26;;;;;;;30.20;23.55;;;-0.10;99.90;;;;;;5012372;28;20838;-80
2023/01/26 13:01:00;;;;;;;30.75;24.08;;;0.30;99.90;;;;;;5011272;28;20391;-82
2023/01/26 13:03:34;;;;;;;31.63;23.08;;;0.40;99.90;;;;;;5016395;28;20473;-80
2023/01/26 13:06:16;;;;;;;32.53;25.20;;;0.60;99.90;;;;;;5018347;28;20397;-80
2023/01/26 13:08:59;;;;;;;36.85;25.20;;;0.10;99.90;;;;;;5013580;28;20401;-80
2023/01/26 13:11:46;;;;;;;32.78;25.20;;;0.10;99.90;;;;;;5009763;28;20501;-82
2023/01/26 13:14:41;;;;;;;41.65;31.48;;;0.20;99.90;;;;;;5010232;28;20394;-81
2023/01/26 13:17:16;;;;;;;34.28;26.88;;;0.10;99.90;;;;;;5009663;28;20407;-82
2023/01/26 13:19:41;;;;;;;37.65;27.08;;;0.60;99.90;;;;;;5013339;28;20441;-81
2023/01/26 13:22:22;;;;;;;38.38;27.88;;;0.00;99.90;;;;;;5010172;28;20387;-82
2023/01/26 13:25:16;;;;;;;33.75;24.13;;;0.10;99.90;;;;;;5011736;28;20470;-81
2023/01/26 13:27:55;;;;;;;32.58;25.23;;;0.20;99.90;;;;;;5014559;28;20418;-80
2023/01/26 13:30:30;;;;;;;36.67;26.20;;;0.90;99.90;;;;;;5015586;28;20426;-80
2023/01/26 13:33:11;;;;;;;34.72;25.92;;;0.60;99.90;;;;;;5013076;28;20910;-79
2023/01/26 13:35:38;;;;;;;37.40;26.63;;;0.10;99.90;;;;;;5009084;28;20435;-78
2023/01/26 13:38:23;;;;;;;38.72;26.08;;;0.10;99.90;;;;;;5011096;28;20406;-80
2023/01/26 13:40:49;;;;;;;35.78;25.08;;;-0.10;99.90;;;;;;5010998;28;20383;-80
2023/01/26 13:43:22;;;;;;;35.70;25.73;;;0.10;99.90;;;;;;5010465;28;20414;-80
2023/01/26 13:45:57;;;;;;;34.10;25.10;;;0.00;99.90;;;;;;5011020;28;20398;-81